createdAt,value
2016-11-30T00:00:50.399Z,2.83
2016-11-30T00:02:00.462Z,2.77
2016-11-30T00:03:10.826Z,2.9
2016-11-30T00:04:20.843Z,2.93
2016-11-30T00:05:31.165Z,2.81
2016-11-30T00:06:41.176Z,2.8
2016-11-30T00:07:51.503Z,2.77
2016-11-30T00:09:01.515Z,2.78
2016-11-30T00:10:11.228Z,2.81
2016-11-30T00:11:21.544Z,2.8
2016-11-30T00:12:31.876Z,2.84
2016-11-30T00:13:42.202Z,2.76
2016-11-30T00:14:52.534Z,2.77
2016-11-30T00:16:02.855Z,2.77
2016-11-30T00:17:13.187Z,2.8
2016-11-30T00:18:23.206Z,2.66
2016-11-30T00:19:33.217Z,2.77
2016-11-30T00:20:43.257Z,2.77
2016-11-30T00:21:53.284Z,2.7
2016-11-30T00:23:03.001Z,2.72
2016-11-30T00:24:13.324Z,2.67
2016-11-30T00:25:23.659Z,2.72
2016-11-30T00:26:33.990Z,2.6
2016-11-30T00:27:44.014Z,2.67
2016-11-30T00:28:54.339Z,2.58
2016-11-30T00:30:04.654Z,2.69
2016-11-30T00:31:14.983Z,2.59
2016-11-30T00:32:24.999Z,2.67
2016-11-30T00:33:35.312Z,2.62
2016-11-30T00:34:45.632Z,2.7
2016-11-30T00:35:55.956Z,2.52
2016-11-30T00:37:06.278Z,2.8
2016-11-30T00:38:15.972Z,2.69
2016-11-30T00:39:26.315Z,2.67
2016-11-30T00:40:36.339Z,2.65
2016-11-30T00:41:46.698Z,2.66
2016-11-30T00:42:57.025Z,2.72
2016-11-30T00:44:07.343Z,2.69
2016-11-30T00:45:17.373Z,2.66
2016-11-30T00:46:27.061Z,2.73
2016-11-30T00:47:37.086Z,2.62
2016-11-30T00:48:47.094Z,2.76
2016-11-30T00:49:57.416Z,2.7
2016-11-30T00:51:07.736Z,2.72
2016-11-30T00:52:17.755Z,2.72
2016-11-30T00:53:27.446Z,2.6
2016-11-30T00:54:37.766Z,2.62
2016-11-30T00:55:48.090Z,2.62
2016-11-30T00:56:58.396Z,2.65
2016-11-30T00:58:08.412Z,2.6
2016-11-30T00:59:18.434Z,2.6
2016-11-30T01:00:28.449Z,2.58
2016-11-30T01:01:38.152Z,2.55
2016-11-30T01:02:48.192Z,2.48
2016-11-30T01:03:57.909Z,2.47
2016-11-30T01:05:08.233Z,2.47
2016-11-30T01:06:18.239Z,2.45
2016-11-30T01:07:28.564Z,2.38
2016-11-30T01:08:38.563Z,2.44
2016-11-30T01:09:48.593Z,2.31
2016-11-30T01:10:58.603Z,2.38
2016-11-30T01:12:08.622Z,2.31
2016-11-30T01:13:18.770Z,2.41
2016-11-30T01:14:29.137Z,2.3
2016-11-30T01:15:39.449Z,2.36
2016-11-30T01:16:50.041Z,2.33
2016-11-30T01:18:00.543Z,2.33
2016-11-30T01:19:11.111Z,2.31
2016-11-30T01:20:21.646Z,2.29
2016-11-30T01:21:31.851Z,2.33
2016-11-30T01:22:42.108Z,2.31
2016-11-30T01:23:52.656Z,2.3
2016-11-30T01:25:03.211Z,2.33
2016-11-30T01:26:13.801Z,2.3
2016-11-30T01:27:24.074Z,2.31
2016-11-30T01:28:34.737Z,2.34
2016-11-30T01:29:44.911Z,2.27
2016-11-30T01:30:55.247Z,2.23
2016-11-30T01:32:05.264Z,2.24
2016-11-30T01:33:15.266Z,2.3
2016-11-30T01:34:25.263Z,2.2
2016-11-30T01:35:35.624Z,2.23
2016-11-30T01:36:45.336Z,2.2
2016-11-30T01:37:55.658Z,2.22
2016-11-30T01:39:05.662Z,2.23
2016-11-30T01:40:15.691Z,2.22
2016-11-30T01:41:26.253Z,2.2
2016-11-30T01:42:36.577Z,2.23
2016-11-30T01:43:46.906Z,2.24
2016-11-30T01:44:57.233Z,2.26
2016-11-30T01:46:07.244Z,2.27
2016-11-30T01:47:17.262Z,2.24
2016-11-30T01:48:27.278Z,2.24
2016-11-30T01:49:37.306Z,2.2
2016-11-30T01:50:47.617Z,2.29
2016-11-30T01:51:57.004Z,2.24
2016-11-30T01:53:07.011Z,2.2
2016-11-30T01:54:17.032Z,2.24
2016-11-30T01:55:27.053Z,2.23
2016-11-30T01:56:36.754Z,2.18
2016-11-30T01:57:46.779Z,2.2
2016-11-30T01:58:57.118Z,2.23
2016-11-30T02:00:06.501Z,2.2
2016-11-30T02:01:16.836Z,2.2
2016-11-30T02:02:26.838Z,2.11
2016-11-30T02:03:37.165Z,2.22
2016-11-30T02:04:47.489Z,2.18
2016-11-30T02:05:57.185Z,2.2
2016-11-30T02:07:07.196Z,2.15
2016-11-30T02:08:16.912Z,2.11
2016-11-30T02:09:26.928Z,2.13
2016-11-30T02:10:36.936Z,2.09
2016-11-30T02:11:47.246Z,2.04
2016-11-30T02:12:57.566Z,2.08
2016-11-30T02:14:07.570Z,2.09
2016-11-30T02:15:17.577Z,2.09
2016-11-30T02:16:27.895Z,2.05
2016-11-30T02:17:38.224Z,1.98
2016-11-30T02:18:48.243Z,1.93
2016-11-30T02:19:58.264Z,1.98
2016-11-30T02:21:08.280Z,1.93
2016-11-30T02:22:18.604Z,2.04
2016-11-30T02:23:28.629Z,1.98
2016-11-30T02:24:38.942Z,1.94
2016-11-30T02:25:49.262Z,1.94
2016-11-30T02:26:59.274Z,1.93
2016-11-30T02:28:09.297Z,1.86
2016-11-30T02:29:19.613Z,1.84
2016-11-30T02:30:29.911Z,1.83
2016-11-30T02:31:39.601Z,1.84
2016-11-30T02:32:49.913Z,1.82
2016-11-30T02:34:00.259Z,1.89
2016-11-30T02:35:10.264Z,1.89
2016-11-30T02:36:20.593Z,1.83
2016-11-30T02:37:30.644Z,1.83
2016-11-30T02:38:41.010Z,1.89
2016-11-30T02:39:51.028Z,1.89
2016-11-30T02:41:01.360Z,1.82
2016-11-30T02:42:11.381Z,1.86
2016-11-30T02:43:21.702Z,1.89
2016-11-30T02:44:31.390Z,1.86
2016-11-30T02:45:41.725Z,1.87
2016-11-30T02:46:51.747Z,1.9
2016-11-30T02:48:02.071Z,2.01
2016-11-30T02:49:11.780Z,1.92
2016-11-30T02:50:21.793Z,1.92
2016-11-30T02:51:32.139Z,1.84
2016-11-30T02:52:42.457Z,1.9
2016-11-30T02:53:52.479Z,1.93
2016-11-30T02:55:02.484Z,1.93
2016-11-30T02:56:12.185Z,1.87
2016-11-30T02:57:22.512Z,1.9
2016-11-30T02:58:32.841Z,1.93
2016-11-30T02:59:42.852Z,1.83
2016-11-30T03:00:53.180Z,1.94
2016-11-30T03:33:00.350Z,-1.82
2016-11-30T03:34:10.702Z,-1.97
2016-11-30T03:35:20.095Z,-1.92
2016-11-30T03:36:30.090Z,-1.89
2016-11-30T03:37:40.103Z,-1.84
2016-11-30T03:38:50.113Z,-1.68
2016-11-30T03:40:00.450Z,-1.48
2016-11-30T03:41:10.462Z,-1.35
2016-11-30T03:42:20.709Z,-1.03
2016-11-30T03:43:30.723Z,-0.89
2016-11-30T03:44:40.756Z,-0.62
2016-11-30T03:45:51.106Z,-0.4
2016-11-30T03:47:01.128Z,-0.3
2016-11-30T03:48:11.513Z,-0.12
2016-11-30T03:49:21.834Z,0.01
2016-11-30T03:50:32.170Z,0.16
2016-11-30T03:51:42.190Z,0.31
2016-11-30T03:52:52.511Z,0.39
2016-11-30T03:54:02.511Z,0.58
2016-11-30T03:55:12.227Z,0.58
2016-11-30T03:56:22.549Z,0.79
2016-11-30T03:57:32.875Z,0.82
2016-11-30T03:58:42.895Z,0.92
2016-11-30T03:59:52.324Z,0.99
2016-11-30T04:01:02.332Z,1.1
2016-11-30T04:02:12.662Z,1.04
2016-11-30T04:03:22.679Z,1.22
2016-11-30T04:04:32.697Z,1.15
2016-11-30T04:05:43.078Z,1.3
2016-11-30T04:06:53.094Z,1.33
2016-11-30T04:08:03.101Z,1.32
2016-11-30T04:09:13.447Z,1.42
2016-11-30T04:10:23.784Z,1.48
2016-11-30T04:11:33.801Z,1.56
2016-11-30T04:12:44.126Z,1.56
2016-11-30T04:13:54.469Z,1.58
2016-11-30T04:15:04.801Z,1.57
2016-11-30T04:16:15.130Z,1.64
2016-11-30T04:17:25.455Z,1.54
2016-11-30T04:18:35.784Z,1.6
2016-11-30T04:19:45.803Z,1.72
2016-11-30T04:20:55.505Z,1.68
2016-11-30T04:22:05.841Z,1.78
2016-11-30T04:23:15.858Z,1.76
2016-11-30T04:24:26.190Z,1.76
2016-11-30T04:25:36.537Z,1.82
2016-11-30T04:26:46.553Z,1.82
2016-11-30T04:27:56.897Z,1.84
2016-11-30T04:29:07.237Z,1.69
2016-11-30T04:30:17.255Z,1.78
2016-11-30T04:31:27.275Z,1.84
2016-11-30T04:32:36.978Z,1.82
2016-11-30T04:33:46.367Z,1.83
2016-11-30T04:34:56.683Z,1.87
2016-11-30T04:36:07.007Z,1.71
2016-11-30T04:37:17.334Z,1.68
2016-11-30T04:38:27.346Z,1.87
2016-11-30T04:39:37.668Z,1.75
2016-11-30T04:40:47.681Z,1.76
2016-11-30T04:41:58.005Z,1.71
2016-11-30T04:43:08.333Z,1.79
2016-11-30T04:44:18.665Z,1.83
2016-11-30T04:45:28.986Z,1.84
2016-11-30T04:46:38.373Z,1.82
2016-11-30T04:47:48.392Z,1.89
2016-11-30T04:48:58.390Z,1.89
2016-11-30T04:50:08.398Z,1.84
2016-11-30T04:51:18.101Z,1.97
2016-11-30T04:52:27.802Z,1.98
2016-11-30T04:53:38.114Z,1.83
2016-11-30T04:54:47.814Z,1.84
2016-11-30T04:55:57.507Z,1.9
2016-11-30T04:57:07.202Z,1.86
2016-11-30T04:58:17.532Z,1.79
2016-11-30T04:59:27.854Z,1.89
2016-11-30T05:00:37.543Z,1.84
2016-11-30T05:01:47.564Z,1.87
2016-11-30T05:02:57.891Z,1.9
2016-11-30T05:04:08.223Z,1.84
2016-11-30T05:05:18.249Z,1.82
2016-11-30T05:06:28.293Z,1.82
2016-11-30T05:07:38.625Z,1.83
2016-11-30T05:08:48.634Z,1.82
2016-11-30T05:09:58.651Z,1.84
2016-11-30T05:11:08.033Z,1.84
2016-11-30T05:12:18.054Z,1.71
2016-11-30T05:13:28.067Z,1.79
2016-11-30T05:14:37.764Z,1.69
2016-11-30T05:15:48.119Z,1.71
2016-11-30T05:16:57.510Z,1.71
2016-11-30T05:18:07.838Z,1.71
2016-11-30T05:19:17.855Z,1.75
2016-11-30T05:20:28.189Z,1.71
2016-11-30T05:21:38.512Z,1.79
2016-11-30T05:22:48.846Z,1.86
2016-11-30T05:23:59.167Z,1.79
2016-11-30T05:25:09.190Z,1.74
2016-11-30T05:26:19.505Z,1.71
2016-11-30T05:27:29.821Z,1.64
2016-11-30T05:28:39.527Z,1.69
2016-11-30T05:29:49.566Z,1.66
2016-11-30T05:30:59.581Z,1.72
2016-11-30T05:32:09.918Z,1.71
2016-11-30T05:33:20.242Z,1.74
2016-11-30T05:34:29.945Z,1.71
2016-11-30T05:35:39.652Z,1.66
2016-11-30T05:36:49.989Z,1.61
2016-11-30T05:38:00.006Z,1.61
2016-11-30T05:39:09.723Z,1.65
2016-11-30T05:40:19.735Z,1.54
2016-11-30T05:41:30.062Z,1.58
2016-11-30T05:42:40.622Z,1.54
2016-11-30T05:43:50.625Z,1.51
2016-11-30T05:45:00.651Z,1.54
2016-11-30T05:46:10.658Z,1.65
2016-11-30T05:47:20.660Z,1.6
2016-11-30T05:48:30.671Z,1.54
2016-11-30T05:49:40.999Z,1.69
2016-11-30T05:50:50.690Z,1.66
2016-11-30T05:52:00.702Z,1.69
2016-11-30T05:53:10.730Z,1.75
2016-11-30T05:54:20.740Z,1.75
2016-11-30T05:55:30.455Z,1.75
2016-11-30T05:56:40.777Z,1.79
2016-11-30T05:57:51.090Z,1.72
2016-11-30T05:59:00.796Z,1.86
2016-11-30T06:00:10.812Z,1.74
2016-11-30T06:01:21.148Z,1.74
2016-11-30T06:02:31.449Z,1.74
2016-11-30T06:03:41.824Z,1.79
2016-11-30T06:04:52.194Z,1.76
2016-11-30T06:06:02.522Z,1.83
2016-11-30T06:07:12.849Z,1.84
2016-11-30T06:08:22.850Z,1.76
2016-11-30T06:09:33.182Z,1.72
2016-11-30T06:10:43.189Z,1.71
2016-11-30T06:11:53.515Z,1.68
2016-11-30T06:13:03.526Z,1.57
2016-11-30T06:14:13.224Z,1.65
2016-11-30T06:15:23.244Z,1.57
2016-11-30T06:16:32.951Z,1.56
2016-11-30T06:17:42.968Z,1.56
2016-11-30T06:18:52.986Z,1.48
2016-11-30T06:20:03.316Z,1.42
2016-11-30T06:21:13.590Z,1.42
2016-11-30T06:22:23.917Z,1.42
2016-11-30T06:23:34.228Z,1.44
2016-11-30T06:24:44.544Z,1.53
2016-11-30T06:25:54.871Z,1.47
2016-11-30T06:27:04.562Z,1.42
2016-11-30T06:28:14.588Z,1.48
2016-11-30T06:29:24.285Z,1.51
2016-11-30T06:30:34.297Z,1.5
2016-11-30T06:31:44.625Z,1.44
2016-11-30T06:32:54.622Z,1.4
2016-11-30T06:34:04.637Z,1.48
2016-11-30T06:35:14.339Z,1.46
2016-11-30T06:36:24.035Z,1.46
2016-11-30T06:37:34.047Z,1.46
2016-11-30T06:38:44.391Z,1.44
2016-11-30T06:39:54.725Z,1.4
2016-11-30T06:41:05.041Z,1.44
2016-11-30T06:42:15.364Z,1.32
2016-11-30T06:43:25.680Z,1.33
2016-11-30T06:44:35.697Z,1.35
2016-11-30T06:45:45.404Z,1.36
2016-11-30T06:46:55.425Z,1.35
2016-11-30T06:48:05.438Z,1.33
2016-11-30T06:49:15.774Z,1.39
2016-11-30T06:50:26.095Z,1.48
2016-11-30T06:51:35.479Z,1.5
2016-11-30T06:52:45.803Z,1.57
2016-11-30T06:53:56.130Z,1.61
2016-11-30T06:55:06.453Z,1.56
2016-11-30T06:56:16.461Z,1.64
2016-11-30T06:57:26.465Z,1.71
2016-11-30T06:58:36.786Z,1.71
2016-11-30T06:59:47.105Z,1.78
2016-11-30T07:00:57.425Z,1.75
2016-11-30T07:02:07.977Z,1.78
2016-11-30T07:03:17.994Z,1.89
2016-11-30T07:04:28.004Z,1.9
2016-11-30T07:05:37.729Z,1.97
2016-11-30T07:06:48.055Z,2.05
2016-11-30T07:07:58.066Z,2.15
2016-11-30T07:09:07.771Z,2.09
2016-11-30T07:10:17.789Z,2.09
2016-11-30T07:11:27.794Z,2.33
2016-11-30T07:12:37.496Z,2.3
2016-11-30T07:13:47.512Z,2.42
2016-11-30T07:14:57.555Z,2.36
2016-11-30T07:16:07.881Z,2.47
2016-11-30T07:17:17.942Z,2.51
2016-11-30T07:18:28.266Z,2.62
2016-11-30T07:19:38.615Z,2.73
2016-11-30T07:20:48.322Z,2.7
2016-11-30T07:21:58.323Z,2.77
2016-11-30T07:23:08.647Z,2.98
2016-11-30T07:24:18.337Z,3.11
2016-11-30T07:25:28.039Z,3.13
2016-11-30T07:26:38.363Z,3.11
2016-11-30T07:27:48.385Z,3.2
2016-11-30T07:28:58.726Z,3.37
2016-11-30T07:30:08.431Z,3.39
2016-11-30T07:31:18.772Z,3.57
2016-11-30T07:32:29.089Z,3.64
2016-11-30T07:33:39.411Z,3.69
2016-11-30T07:34:49.729Z,3.82
2016-11-30T07:36:00.053Z,4.02
2016-11-30T07:37:09.448Z,4.21
2016-11-30T07:38:19.777Z,4.21
2016-11-30T07:39:29.780Z,4.28
2016-11-30T07:40:39.806Z,4.33
2016-11-30T07:41:50.138Z,4.17
2016-11-30T07:42:59.859Z,4.17
2016-11-30T07:44:09.856Z,4.2
2016-11-30T07:45:20.171Z,4.11
2016-11-30T07:46:30.197Z,4.2
2016-11-30T07:47:39.578Z,4.26
2016-11-30T07:48:49.290Z,4.2
2016-11-30T07:49:58.990Z,4.12
2016-11-30T07:51:09.016Z,4.11
2016-11-30T07:52:19.338Z,4.14
2016-11-30T07:53:29.355Z,4.02
2016-11-30T07:54:39.371Z,4.02
2016-11-30T07:55:49.693Z,4.07
2016-11-30T07:57:00.025Z,4.07
2016-11-30T07:58:10.041Z,3.92
2016-11-30T07:59:20.070Z,3.92
2016-11-30T08:00:30.080Z,3.9
2016-11-30T08:01:39.777Z,3.92
2016-11-30T08:02:50.100Z,3.97
2016-11-30T08:04:00.436Z,3.94
2016-11-30T08:05:10.773Z,4.07
2016-11-30T08:06:20.471Z,4.15
2016-11-30T08:07:30.484Z,4.24
2016-11-30T08:08:40.508Z,4.32
2016-11-30T08:09:50.829Z,4.44
2016-11-30T08:11:01.137Z,4.71
2016-11-30T08:12:11.467Z,4.91
2016-11-30T08:13:21.485Z,5.18
2016-11-30T08:14:31.511Z,5.33
2016-11-30T08:15:41.834Z,5.42
2016-11-30T08:16:51.550Z,5.54
2016-11-30T08:18:01.888Z,5.67
2016-11-30T08:19:12.218Z,5.84
2016-11-30T08:20:21.906Z,6
2016-11-30T08:21:32.246Z,6.21
2016-11-30T08:22:42.260Z,6.25
2016-11-30T08:23:52.268Z,6.42
2016-11-30T08:25:02.595Z,6.43
2016-11-30T08:26:12.300Z,6.54
2016-11-30T08:27:22.635Z,6.76
2016-11-30T08:28:32.637Z,6.82
2016-11-30T08:29:42.994Z,6.97
2016-11-30T08:30:53.020Z,6.97
2016-11-30T08:32:02.719Z,6.91
2016-11-30T08:33:13.030Z,6.86
2016-11-30T08:34:22.417Z,6.78
2016-11-30T08:35:32.754Z,6.88
2016-11-30T08:36:42.797Z,7.05
2016-11-30T08:37:52.516Z,7.16
2016-11-30T08:39:02.555Z,7.19
2016-11-30T08:40:12.579Z,7.34
2016-11-30T08:41:22.607Z,7.39
2016-11-30T08:42:32.924Z,7.56
2016-11-30T08:43:43.264Z,7.73
2016-11-30T08:44:53.282Z,7.93
2016-11-30T08:46:03.300Z,8.07
2016-11-30T08:47:12.375Z,8.34
2016-11-30T08:48:22.697Z,8.5
2016-11-30T08:49:33.045Z,8.57
2016-11-30T08:50:43.362Z,8.69
2016-11-30T08:51:53.702Z,8.89
2016-11-30T08:53:03.729Z,9.11
2016-11-30T08:54:13.757Z,9.27
2016-11-30T08:55:23.791Z,9.37
2016-11-30T08:56:33.503Z,9.53
2016-11-30T08:57:43.517Z,9.71
2016-11-30T08:58:53.534Z,9.77
2016-11-30T09:00:03.286Z,9.88
2016-11-30T09:01:13.622Z,9.84
2016-11-30T09:02:23.943Z,9.81
2016-11-30T09:03:33.969Z,9.66
2016-11-30T09:04:44.006Z,9.63
2016-11-30T09:05:54.356Z,9.57
2016-11-30T09:07:04.115Z,9.24
2016-11-30T09:08:14.456Z,9.2
2016-11-30T09:09:24.822Z,9.12
2016-11-30T09:10:34.830Z,9.09
2016-11-30T09:11:44.529Z,8.92
2016-11-30T09:12:54.552Z,8.87
2016-11-30T09:14:04.891Z,8.8
2016-11-30T09:15:15.228Z,8.8
2016-11-30T09:16:25.560Z,8.76
2016-11-30T09:17:35.590Z,8.68
2016-11-30T09:18:45.587Z,8.62
2016-11-30T09:19:55.300Z,8.47
2016-11-30T09:21:05.334Z,8.57
2016-11-30T09:22:15.662Z,8.53
2016-11-30T09:23:25.683Z,8.62
2016-11-30T09:24:35.392Z,8.69
2016-11-30T09:25:45.082Z,8.71
2016-11-30T09:26:55.433Z,8.94
2016-11-30T09:28:05.480Z,9.2
2016-11-30T09:29:15.176Z,9.19
2016-11-30T09:30:25.193Z,9.24
2016-11-30T09:31:35.540Z,9.27
2016-11-30T09:32:45.249Z,9.37
2016-11-30T09:33:54.949Z,9.47
2016-11-30T09:35:04.351Z,9.52
2016-11-30T09:36:14.682Z,9.66
2016-11-30T09:37:24.378Z,9.64
2016-11-30T09:38:34.707Z,9.63
2016-11-30T09:39:44.417Z,9.57
2016-11-30T09:40:54.115Z,9.52
2016-11-30T09:42:04.450Z,9.48
2016-11-30T09:43:14.498Z,9.55
2016-11-30T09:44:24.450Z,9.75
2016-11-30T09:45:34.503Z,9.9
2016-11-30T09:46:44.203Z,9.99
2016-11-30T09:47:54.539Z,10.18
2016-11-30T09:49:04.536Z,10.39
2016-11-30T09:50:14.864Z,10.49
2016-11-30T09:51:24.875Z,10.79
2016-11-30T09:52:34.572Z,10.88
2016-11-30T09:53:44.898Z,10.84
2016-11-30T09:54:55.231Z,10.87
2016-11-30T09:56:05.256Z,10.94
2016-11-30T09:57:15.280Z,11.02
2016-11-30T09:58:25.605Z,10.91
2016-11-30T09:59:35.362Z,10.98
2016-11-30T10:00:45.694Z,10.79
2016-11-30T10:01:56.049Z,10.66
2016-11-30T10:03:06.073Z,10.66
2016-11-30T10:04:16.081Z,10.67
2016-11-30T10:05:25.801Z,10.57
2016-11-30T10:06:35.826Z,10.49
2016-11-30T10:07:45.854Z,10.52
2016-11-30T10:08:55.875Z,10.61
2016-11-30T10:10:05.878Z,10.63
2016-11-30T10:11:16.231Z,10.69
2016-11-30T10:12:26.546Z,10.55
2016-11-30T10:13:36.863Z,10.57
2016-11-30T10:14:47.199Z,10.63
2016-11-30T10:15:57.551Z,10.69
2016-11-30T10:17:07.877Z,10.69
2016-11-30T10:18:17.589Z,10.77
2016-11-30T10:19:27.920Z,10.75
2016-11-30T10:20:37.633Z,10.79
2016-11-30T10:21:48.011Z,10.76
2016-11-30T10:22:58.341Z,10.83
2016-11-30T10:24:08.668Z,10.9
2016-11-30T10:25:18.688Z,10.84
2016-11-30T10:26:28.400Z,10.87
2016-11-30T10:27:38.722Z,10.85
2016-11-30T10:28:48.428Z,11.02
2016-11-30T10:29:58.766Z,10.98
2016-11-30T10:31:09.097Z,11.06
2016-11-30T10:32:19.113Z,11.09
2016-11-30T10:33:29.486Z,11.24
2016-11-30T10:34:39.205Z,11.24
2016-11-30T10:35:49.245Z,11.28
2016-11-30T10:36:59.576Z,11.39
2016-11-30T10:38:09.584Z,11.42
2016-11-30T10:39:19.927Z,11.38
2016-11-30T10:40:29.331Z,11.39
2016-11-30T10:41:39.348Z,11.39
2016-11-30T10:42:49.691Z,11.34
2016-11-30T10:44:00.042Z,11.28
2016-11-30T10:45:10.092Z,11.24
2016-11-30T10:46:20.443Z,11.2
2016-11-30T10:47:30.452Z,11.12
2016-11-30T10:48:40.463Z,11.06
2016-11-30T10:49:50.789Z,11.08
2016-11-30T10:51:00.801Z,11.05
2016-11-30T10:52:10.839Z,10.95
2016-11-30T10:53:21.180Z,10.94
2016-11-30T10:54:30.886Z,10.87
2016-11-30T10:55:41.243Z,11.02
2016-11-30T10:56:51.580Z,11.08
2016-11-30T10:58:01.293Z,10.92
2016-11-30T10:59:11.013Z,11.06
2016-11-30T11:00:21.032Z,11.09
2016-11-30T11:01:31.118Z,11.03
2016-11-30T11:02:41.503Z,11
2016-11-30T11:03:51.839Z,11
2016-11-30T11:05:01.862Z,10.95
2016-11-30T11:06:12.233Z,11.02
2016-11-30T11:07:21.946Z,10.97
2016-11-30T11:08:31.656Z,11.05
2016-11-30T11:09:41.994Z,11.05
2016-11-30T11:10:51.719Z,11
2016-11-30T11:12:02.051Z,11.03
2016-11-30T11:13:12.384Z,11.1
2016-11-30T11:14:22.093Z,11.05
2016-11-30T11:15:32.418Z,10.97
2016-11-30T11:16:42.768Z,11.1
2016-11-30T11:17:52.930Z,11.03
2016-11-30T11:19:03.294Z,11.05
2016-11-30T11:20:13.304Z,10.98
2016-11-30T11:21:23.000Z,10.95
2016-11-30T11:22:33.331Z,10.94
2016-11-30T11:23:43.061Z,10.83
2016-11-30T11:24:53.382Z,10.79
2016-11-30T11:26:03.403Z,10.83
2016-11-30T11:27:13.425Z,10.7
2016-11-30T11:28:23.121Z,10.72
2016-11-30T11:29:33.448Z,10.58
2016-11-30T11:30:43.778Z,10.59
2016-11-30T11:31:54.134Z,10.55
2016-11-30T11:33:04.161Z,10.59
2016-11-30T11:34:14.489Z,10.51
2016-11-30T11:35:24.825Z,10.52
2016-11-30T11:36:35.149Z,10.59
2016-11-30T11:37:45.173Z,10.51
2016-11-30T11:38:55.204Z,10.52
2016-11-30T11:40:05.226Z,10.52
2016-11-30T11:41:15.559Z,10.61
2016-11-30T11:42:25.581Z,10.66
2016-11-30T11:43:35.613Z,10.58
2016-11-30T11:44:45.938Z,10.57
2016-11-30T11:45:55.655Z,10.52
2016-11-30T11:47:05.361Z,10.52
2016-11-30T11:48:15.703Z,10.52
2016-11-30T11:49:25.725Z,10.54
2016-11-30T11:50:36.062Z,10.51
2016-11-30T11:51:46.405Z,10.39
2016-11-30T11:52:56.761Z,10.38
2016-11-30T11:54:06.467Z,10.42
2016-11-30T11:55:16.483Z,10.35
2016-11-30T11:56:26.542Z,10.38
2016-11-30T11:57:36.876Z,10.32
2016-11-30T11:58:46.896Z,10.28
2016-11-30T11:59:57.219Z,10.21
2016-11-30T12:01:07.245Z,10.13
2016-11-30T12:02:17.291Z,10.02
2016-11-30T12:03:27.355Z,9.96
2016-11-30T12:04:37.677Z,9.89
2016-11-30T12:05:47.708Z,9.88
2016-11-30T12:06:58.046Z,9.81
2016-11-30T12:08:07.777Z,9.75
2016-11-30T12:09:18.171Z,9.7
2016-11-30T12:10:28.198Z,9.75
2016-11-30T12:11:38.267Z,9.63
2016-11-30T12:12:47.974Z,9.67
2016-11-30T12:13:57.993Z,9.55
2016-11-30T12:15:08.335Z,9.6
2016-11-30T12:16:18.675Z,9.64
2016-11-30T12:17:29.001Z,9.53
2016-11-30T12:18:39.342Z,9.52
2016-11-30T12:19:49.698Z,9.52
2016-11-30T12:21:00.055Z,9.45
2016-11-30T12:22:10.394Z,9.44
2016-11-30T12:23:20.424Z,9.42
2016-11-30T12:24:30.823Z,9.42
2016-11-30T12:25:40.847Z,9.39
2016-11-30T12:26:51.186Z,9.38
2016-11-30T12:28:01.202Z,9.38
2016-11-30T12:29:11.548Z,9.3
2016-11-30T12:30:21.270Z,9.41
2016-11-30T12:31:30.970Z,9.35
2016-11-30T12:32:41.294Z,9.41
2016-11-30T12:33:51.649Z,9.42
2016-11-30T12:35:01.988Z,9.44
2016-11-30T12:36:12.333Z,9.32
2016-11-30T12:37:22.344Z,9.35
2016-11-30T12:38:32.691Z,9.3
2016-11-30T12:39:42.718Z,9.26
2016-11-30T12:40:52.745Z,9.2
2016-11-30T12:42:02.448Z,9.23
2016-11-30T12:43:12.185Z,9.17
2016-11-30T12:44:22.224Z,9.19
2016-11-30T12:45:32.611Z,9.11
2016-11-30T12:46:42.675Z,9.11
2016-11-30T12:47:52.700Z,9.11
2016-11-30T12:49:02.737Z,9.11
2016-11-30T12:50:12.763Z,9.09
2016-11-30T12:51:23.111Z,9.05
2016-11-30T12:52:33.432Z,9.17
2016-11-30T12:53:43.769Z,9.14
2016-11-30T12:54:53.485Z,9.19
2016-11-30T12:56:03.822Z,9.21
2016-11-30T12:57:13.839Z,9.21
2016-11-30T12:58:23.872Z,9.12
2016-11-30T12:59:33.902Z,9.19
2016-11-30T13:00:43.931Z,9.21
2016-11-30T13:01:53.966Z,9.27
2016-11-30T13:03:04.288Z,9.26
2016-11-30T13:04:14.630Z,9.27
2016-11-30T13:05:24.981Z,9.24
2016-11-30T13:06:34.988Z,9.3
2016-11-30T13:07:44.384Z,9.29
2016-11-30T13:08:54.409Z,9.23
2016-11-30T13:10:04.732Z,9.26
2016-11-30T13:11:15.100Z,9.26
2016-11-30T13:12:25.171Z,9.12
2016-11-30T13:13:35.493Z,9.21
2016-11-30T13:14:45.820Z,9.19
2016-11-30T13:15:56.171Z,9.24
2016-11-30T13:17:06.522Z,9.24
2016-11-30T13:18:16.854Z,9.2
2016-11-30T13:19:26.897Z,9.21
2016-11-30T13:20:37.223Z,9.05
2016-11-30T13:21:47.545Z,9.24
2016-11-30T13:22:57.871Z,9.17
2016-11-30T13:24:07.893Z,9.12
2016-11-30T13:25:17.910Z,9.23
2016-11-30T13:26:27.617Z,9.21
2016-11-30T13:27:37.963Z,9.21
2016-11-30T13:28:47.999Z,9.12
2016-11-30T13:29:58.342Z,9.16
2016-11-30T13:31:08.053Z,9.09
2016-11-30T13:32:18.412Z,9.08
2016-11-30T13:33:28.112Z,8.98
2016-11-30T13:34:38.129Z,9.04
2016-11-30T13:35:47.857Z,9
2016-11-30T13:36:57.886Z,9.08
2016-11-30T13:38:08.233Z,9.09
2016-11-30T13:39:18.251Z,9.14
2016-11-30T13:40:28.587Z,9.14
2016-11-30T13:41:38.939Z,9.14
2016-11-30T13:42:48.986Z,9.09
2016-11-30T13:43:59.009Z,9.23
2016-11-30T13:45:09.025Z,9.19
2016-11-30T13:46:19.346Z,9.26
2016-11-30T13:47:29.671Z,9.26
2016-11-30T13:48:39.980Z,9.23
2016-11-30T13:49:50.311Z,9.37
2016-11-30T13:51:00.895Z,9.35
2016-11-30T13:52:10.940Z,9.47
2016-11-30T13:53:20.969Z,9.37
2016-11-30T13:54:30.987Z,9.42
2016-11-30T13:55:41.339Z,9.5
2016-11-30T13:56:51.698Z,9.44
2016-11-30T13:58:01.402Z,9.45
2016-11-30T13:59:11.420Z,9.44
2016-11-30T14:00:21.455Z,9.47
2016-11-30T14:01:31.792Z,9.53
2016-11-30T14:02:41.844Z,9.47
2016-11-30T14:03:51.865Z,9.41
2016-11-30T14:05:01.582Z,9.45
2016-11-30T14:06:11.624Z,9.38
2016-11-30T14:07:21.960Z,9.38
2016-11-30T14:08:32.299Z,9.38
2016-11-30T14:09:42.634Z,9.34
2016-11-30T14:10:52.659Z,9.37
2016-11-30T14:12:02.677Z,9.32
2016-11-30T14:13:12.407Z,9.37
2016-11-30T14:14:22.428Z,9.32
2016-11-30T14:15:32.136Z,9.29
2016-11-30T14:16:42.166Z,9.35
2016-11-30T14:17:51.861Z,9.29
2016-11-30T14:19:02.182Z,9.21
2016-11-30T14:20:11.915Z,9.16
2016-11-30T14:21:21.950Z,9.16
2016-11-30T14:22:32.284Z,9.16
2016-11-30T14:23:42.621Z,9.19
2016-11-30T14:24:52.339Z,9.11
2016-11-30T14:26:02.356Z,8.9
2016-11-30T14:27:12.394Z,8.95
2016-11-30T14:28:22.724Z,8.98
2016-11-30T14:29:33.051Z,8.95
2016-11-30T14:30:43.108Z,8.83
2016-11-30T14:31:53.435Z,8.87
2016-11-30T14:33:03.753Z,8.79
2016-11-30T14:34:13.464Z,8.76
2016-11-30T14:35:23.475Z,8.67
2016-11-30T14:36:33.811Z,8.71
2016-11-30T14:37:44.134Z,8.69
2016-11-30T14:38:54.165Z,8.53
2016-11-30T14:40:04.221Z,8.58
2016-11-30T14:41:14.273Z,8.62
2016-11-30T14:42:24.300Z,8.53
2016-11-30T14:43:34.332Z,8.54
2016-11-30T14:44:44.673Z,8.58
2016-11-30T14:45:54.699Z,8.46
2016-11-30T14:47:04.103Z,8.44
2016-11-30T14:48:14.133Z,8.39
2016-11-30T14:49:24.177Z,8.36
2016-11-30T14:50:34.552Z,8.42
2016-11-30T14:51:44.575Z,8.42
2016-11-30T14:52:54.600Z,8.34
2016-11-30T14:54:04.619Z,8.28
2016-11-30T14:55:14.335Z,8.29
2016-11-30T14:56:24.673Z,8.25
2016-11-30T14:57:35.008Z,8.29
2016-11-30T14:58:45.015Z,8.17
2016-11-30T14:59:55.042Z,8.16
2016-11-30T15:01:05.067Z,8.22
2016-11-30T15:02:15.079Z,8.22
2016-11-30T15:03:25.400Z,8.19
2016-11-30T15:04:35.108Z,8.13
2016-11-30T15:05:45.139Z,8.21
2016-11-30T15:06:55.170Z,8.22
2016-11-30T15:08:04.877Z,8.13
2016-11-30T15:09:14.269Z,8.22
2016-11-30T15:10:24.590Z,8.17
2016-11-30T15:11:34.913Z,8.14
2016-11-30T15:12:44.927Z,8.14
2016-11-30T15:13:55.259Z,8.13
2016-11-30T15:15:05.578Z,8.11
2016-11-30T15:16:15.596Z,8.13
2016-11-30T15:17:25.925Z,8.01
2016-11-30T15:18:36.262Z,8.04
2016-11-30T15:19:46.590Z,8.1
2016-11-30T15:20:56.906Z,8.09
2016-11-30T15:22:06.612Z,8.16
2016-11-30T15:23:16.938Z,8.11
2016-11-30T15:24:27.295Z,8.11
2016-11-30T15:25:37.618Z,8.13
2016-11-30T15:26:47.963Z,8.22
2016-11-30T15:27:57.680Z,8.14
2016-11-30T15:29:08.007Z,8.22
2016-11-30T15:30:18.019Z,8.21
2016-11-30T15:31:28.349Z,8.17
2016-11-30T15:32:38.373Z,8.11
2016-11-30T15:33:48.688Z,8.14
2016-11-30T15:34:59.037Z,8.07
2016-11-30T15:36:09.371Z,8.11
2016-11-30T15:37:19.693Z,8.11
2016-11-30T15:38:29.711Z,8.09
2016-11-30T15:39:39.451Z,8.16
2016-11-30T15:40:49.458Z,8.11
2016-11-30T15:41:59.176Z,8.14
2016-11-30T15:43:08.578Z,8.17
2016-11-30T15:44:18.935Z,8.01
2016-11-30T15:45:28.955Z,7.99
2016-11-30T15:46:39.282Z,8.04
2016-11-30T15:47:49.615Z,8.01
2016-11-30T15:48:59.980Z,8.04
2016-11-30T15:50:10.022Z,8.1
2016-11-30T15:51:20.030Z,7.99
2016-11-30T15:52:30.050Z,8.11
2016-11-30T15:53:40.388Z,7.99
2016-11-30T15:54:50.395Z,8.06
2016-11-30T15:56:00.430Z,8.07
2016-11-30T15:57:10.758Z,8.04
2016-11-30T15:58:20.770Z,8.11
2016-11-30T15:59:31.102Z,8.09
2016-11-30T16:00:41.429Z,8.19
2016-11-30T16:01:51.453Z,8.04